sensor_id;sensor_type;location;lat;lon;timestamp;P1;durP1;ratioP1;P2;durP2;ratioP2
25948;SDS011;13961;51.178;4.448;2022-10-28T00:00:02;9.98;;;3.88;;
25948;SDS011;13961;51.178;4.448;2022-10-28T00:02:28;8.75;;;3.90;;
25948;SDS011;13961;51.178;4.448;2022-10-28T00:04:54;10.15;;;4.35;;
25948;SDS011;13961;51.178;4.448;2022-10-28T00:07:19;12.45;;;4.03;;
25948;SDS011;13961;51.178;4.448;2022-10-28T00:09:45;8.73;;;3.72;;
25948;SDS011;13961;51.178;4.448;2022-10-28T00:12:11;9.55;;;3.80;;
25948;SDS011;13961;51.178;4.448;2022-10-28T00:14:36;14.93;;;4.28;;
25948;SDS011;13961;51.178;4.448;2022-10-28T00:17:02;12.23;;;4.20;;
25948;SDS011;13961;51.178;4.448;2022-10-28T00:19:30;7.65;;;3.80;;
25948;SDS011;13961;51.178;4.448;2022-10-28T00:21:55;9.05;;;3.95;;
25948;SDS011;13961;51.178;4.448;2022-10-28T00:24:21;12.50;;;4.40;;
25948;SDS011;13961;51.178;4.448;2022-10-28T00:26:47;13.93;;;4.53;;
25948;SDS011;13961;51.178;4.448;2022-10-28T00:29:16;10.93;;;4.05;;
25948;SDS011;13961;51.178;4.448;2022-10-28T00:31:43;9.65;;;4.07;;
25948;SDS011;13961;51.178;4.448;2022-10-28T00:34:16;11.60;;;4.35;;
25948;SDS011;13961;51.178;4.448;2022-10-28T00:36:44;11.40;;;4.30;;
25948;SDS011;13961;51.178;4.448;2022-10-28T00:39:11;10.20;;;3.95;;
25948;SDS011;13961;51.178;4.448;2022-10-28T00:41:42;10.82;;;4.30;;
25948;SDS011;13961;51.178;4.448;2022-10-28T00:49:30;11.63;;;3.67;;
25948;SDS011;13961;51.178;4.448;2022-10-28T00:52:02;12.05;;;3.80;;
25948;SDS011;13961;51.178;4.448;2022-10-28T00:54:33;13.95;;;4.22;;
25948;SDS011;13961;51.178;4.448;2022-10-28T00:57:00;9.10;;;3.85;;
25948;SDS011;13961;51.178;4.448;2022-10-28T00:59:33;13.25;;;4.40;;
25948;SDS011;13961;51.178;4.448;2022-10-28T01:02:02;17.80;;;4.43;;
25948;SDS011;13961;51.178;4.448;2022-10-28T01:04:29;12.90;;;4.22;;
25948;SDS011;13961;51.178;4.448;2022-10-28T01:06:55;10.88;;;3.92;;
25948;SDS011;13961;51.178;4.448;2022-10-28T01:09:22;13.05;;;4.47;;
25948;SDS011;13961;51.178;4.448;2022-10-28T01:37:25;8.65;;;3.83;;
25948;SDS011;13961;51.178;4.448;2022-10-28T01:40:03;7.85;;;3.92;;
25948;SDS011;13961;51.178;4.448;2022-10-28T01:47:48;8.90;;;4.22;;
25948;SDS011;13961;51.178;4.448;2022-10-28T01:52:55;11.95;;;3.72;;
25948;SDS011;13961;51.178;4.448;2022-10-28T01:55:25;10.45;;;3.90;;
25948;SDS011;13961;51.178;4.448;2022-10-28T01:57:53;9.57;;;3.92;;
25948;SDS011;13961;51.178;4.448;2022-10-28T02:00:23;13.63;;;4.43;;
25948;SDS011;13961;51.178;4.448;2022-10-28T02:02:50;10.60;;;4.15;;
25948;SDS011;13961;51.178;4.448;2022-10-28T02:08:21;11.07;;;3.72;;
25948;SDS011;13961;51.178;4.448;2022-10-28T02:11:11;13.80;;;4.32;;
25948;SDS011;13961;51.178;4.448;2022-10-28T02:16:21;12.65;;;3.80;;
25948;SDS011;13961;51.178;4.448;2022-10-28T02:19:13;13.60;;;4.40;;
25948;SDS011;13961;51.178;4.448;2022-10-28T02:24:40;10.90;;;3.63;;
25948;SDS011;13961;51.178;4.448;2022-10-28T02:27:31;10.07;;;4.10;;
25948;SDS011;13961;51.178;4.448;2022-10-28T02:30:03;8.65;;;4.00;;
25948;SDS011;13961;51.178;4.448;2022-10-28T02:32:39;10.07;;;4.25;;
25948;SDS011;13961;51.178;4.448;2022-10-28T02:35:12;13.70;;;3.88;;
25948;SDS011;13961;51.178;4.448;2022-10-28T02:37:41;15.90;;;4.15;;
25948;SDS011;13961;51.178;4.448;2022-10-28T02:40:11;9.75;;;3.88;;
25948;SDS011;13961;51.178;4.448;2022-10-28T02:42:42;8.48;;;3.85;;
25948;SDS011;13961;51.178;4.448;2022-10-28T02:45:14;10.50;;;3.88;;
25948;SDS011;13961;51.178;4.448;2022-10-28T02:47:47;8.93;;;3.83;;
25948;SDS011;13961;51.178;4.448;2022-10-28T02:50:19;12.55;;;4.13;;
25948;SDS011;13961;51.178;4.448;2022-10-28T02:52:49;12.65;;;4.47;;
25948;SDS011;13961;51.178;4.448;2022-10-28T02:55:17;11.35;;;4.10;;
25948;SDS011;13961;51.178;4.448;2022-10-28T02:57:45;8.68;;;3.90;;
25948;SDS011;13961;51.178;4.448;2022-10-28T03:00:15;10.23;;;3.90;;
25948;SDS011;13961;51.178;4.448;2022-10-28T03:02:43;11.02;;;3.90;;
25948;SDS011;13961;51.178;4.448;2022-10-28T03:05:09;11.13;;;3.80;;
25948;SDS011;13961;51.178;4.448;2022-10-28T03:07:34;9.98;;;4.15;;
25948;SDS011;13961;51.178;4.448;2022-10-28T03:10:00;8.15;;;4.28;;
25948;SDS011;13961;51.178;4.448;2022-10-28T03:12:26;9.00;;;3.55;;
25948;SDS011;13961;51.178;4.448;2022-10-28T03:14:51;7.78;;;3.80;;
25948;SDS011;13961;51.178;4.448;2022-10-28T03:17:17;11.13;;;4.07;;
25948;SDS011;13961;51.178;4.448;2022-10-28T03:19:42;9.93;;;3.80;;
25948;SDS011;13961;51.178;4.448;2022-10-28T03:22:08;11.05;;;3.83;;
25948;SDS011;13961;51.178;4.448;2022-10-28T03:24:34;12.05;;;4.50;;
25948;SDS011;13961;51.178;4.448;2022-10-28T03:26:59;8.13;;;3.67;;
25948;SDS011;13961;51.178;4.448;2022-10-28T03:29:25;13.18;;;4.20;;
25948;SDS011;13961;51.178;4.448;2022-10-28T03:31:51;7.43;;;3.45;;
25948;SDS011;13961;51.178;4.448;2022-10-28T03:34:19;9.80;;;3.53;;
25948;SDS011;13961;51.178;4.448;2022-10-28T03:36:44;7.93;;;3.80;;
25948;SDS011;13961;51.178;4.448;2022-10-28T03:39:10;9.45;;;3.60;;
25948;SDS011;13961;51.178;4.448;2022-10-28T03:41:35;10.05;;;4.03;;
25948;SDS011;13961;51.178;4.448;2022-10-28T03:44:01;12.95;;;3.88;;
25948;SDS011;13961;51.178;4.448;2022-10-28T03:46:28;8.10;;;3.97;;
25948;SDS011;13961;51.178;4.448;2022-10-28T03:48:53;12.10;;;3.78;;
25948;SDS011;13961;51.178;4.448;2022-10-28T03:51:19;7.93;;;3.78;;
25948;SDS011;13961;51.178;4.448;2022-10-28T03:53:45;10.45;;;3.80;;
25948;SDS011;13961;51.178;4.448;2022-10-28T03:56:10;10.07;;;3.63;;
25948;SDS011;13961;51.178;4.448;2022-10-28T03:58:36;13.35;;;4.20;;
25948;SDS011;13961;51.178;4.448;2022-10-28T04:01:02;9.82;;;4.50;;
25948;SDS011;13961;51.178;4.448;2022-10-28T04:03:28;12.13;;;3.75;;
25948;SDS011;13961;51.178;4.448;2022-10-28T04:05:53;11.38;;;4.28;;
25948;SDS011;13961;51.178;4.448;2022-10-28T04:08:19;19.42;;;4.18;;
25948;SDS011;13961;51.178;4.448;2022-10-28T04:10:45;11.18;;;3.78;;
25948;SDS011;13961;51.178;4.448;2022-10-28T04:13:12;15.00;;;4.60;;
25948;SDS011;13961;51.178;4.448;2022-10-28T04:15:38;9.05;;;3.72;;
25948;SDS011;13961;51.178;4.448;2022-10-28T04:18:04;7.85;;;3.88;;
25948;SDS011;13961;51.178;4.448;2022-10-28T04:20:30;10.55;;;3.70;;
25948;SDS011;13961;51.178;4.448;2022-10-28T04:22:56;7.25;;;3.95;;
25948;SDS011;13961;51.178;4.448;2022-10-28T04:25:22;7.18;;;2.80;;
25948;SDS011;13961;51.178;4.448;2022-10-28T04:27:49;8.45;;;3.55;;
25948;SDS011;13961;51.178;4.448;2022-10-28T04:30:14;11.00;;;3.95;;
25948;SDS011;13961;51.178;4.448;2022-10-28T04:32:40;10.95;;;3.60;;
25948;SDS011;13961;51.178;4.448;2022-10-28T04:35:06;14.85;;;3.90;;
25948;SDS011;13961;51.178;4.448;2022-10-28T04:37:33;13.45;;;3.75;;
25948;SDS011;13961;51.178;4.448;2022-10-28T04:39:58;13.75;;;4.22;;
25948;SDS011;13961;51.178;4.448;2022-10-28T04:42:24;8.30;;;4.20;;
25948;SDS011;13961;51.178;4.448;2022-10-28T04:44:50;7.32;;;3.60;;
25948;SDS011;13961;51.178;4.448;2022-10-28T04:47:16;10.80;;;3.72;;
25948;SDS011;13961;51.178;4.448;2022-10-28T04:49:42;15.10;;;3.90;;
25948;SDS011;13961;51.178;4.448;2022-10-28T04:52:07;10.27;;;3.45;;
25948;SDS011;13961;51.178;4.448;2022-10-28T04:54:34;10.98;;;4.28;;
25948;SDS011;13961;51.178;4.448;2022-10-28T04:56:59;12.38;;;4.28;;
25948;SDS011;13961;51.178;4.448;2022-10-28T04:59:25;9.20;;;3.72;;
25948;SDS011;13961;51.178;4.448;2022-10-28T05:01:50;9.43;;;3.50;;
25948;SDS011;13961;51.178;4.448;2022-10-28T05:04:16;11.02;;;3.88;;
25948;SDS011;13961;51.178;4.448;2022-10-28T05:06:42;11.30;;;3.90;;
25948;SDS011;13961;51.178;4.448;2022-10-28T05:09:07;12.48;;;4.15;;
25948;SDS011;13961;51.178;4.448;2022-10-28T05:11:33;10.80;;;4.35;;
25948;SDS011;13961;51.178;4.448;2022-10-28T05:13:59;7.82;;;3.97;;
25948;SDS011;13961;51.178;4.448;2022-10-28T05:16:24;7.65;;;4.00;;
25948;SDS011;13961;51.178;4.448;2022-10-28T05:18:51;11.95;;;4.05;;
25948;SDS011;13961;51.178;4.448;2022-10-28T05:21:17;10.88;;;3.60;;
25948;SDS011;13961;51.178;4.448;2022-10-28T05:23:43;9.80;;;3.83;;
25948;SDS011;13961;51.178;4.448;2022-10-28T05:26:12;11.95;;;4.38;;
25948;SDS011;13961;51.178;4.448;2022-10-28T05:28:38;12.75;;;3.75;;
25948;SDS011;13961;51.178;4.448;2022-10-28T05:31:04;6.22;;;3.50;;
25948;SDS011;13961;51.178;4.448;2022-10-28T05:33:29;8.65;;;4.30;;
25948;SDS011;13961;51.178;4.448;2022-10-28T05:35:57;8.23;;;4.22;;
25948;SDS011;13961;51.178;4.448;2022-10-28T05:38:23;11.75;;;4.07;;
25948;SDS011;13961;51.178;4.448;2022-10-28T05:40:49;10.38;;;3.60;;
25948;SDS011;13961;51.178;4.448;2022-10-28T05:43:15;8.63;;;4.22;;
25948;SDS011;13961;51.178;4.448;2022-10-28T05:45:40;13.27;;;4.53;;
25948;SDS011;13961;51.178;4.448;2022-10-28T05:48:06;14.32;;;4.35;;
25948;SDS011;13961;51.178;4.448;2022-10-28T05:50:32;12.85;;;4.47;;
25948;SDS011;13961;51.178;4.448;2022-10-28T05:52:57;8.45;;;4.03;;
25948;SDS011;13961;51.178;4.448;2022-10-28T05:55:24;10.30;;;4.30;;
25948;SDS011;13961;51.178;4.448;2022-10-28T05:57:52;12.75;;;4.57;;
25948;SDS011;13961;51.178;4.448;2022-10-28T06:00:19;13.40;;;4.25;;
25948;SDS011;13961;51.178;4.448;2022-10-28T06:05:17;10.63;;;4.38;;
25948;SDS011;13961;51.178;4.448;2022-10-28T06:07:43;9.10;;;4.75;;
25948;SDS011;13961;51.178;4.448;2022-10-28T06:10:09;9.70;;;4.53;;
25948;SDS011;13961;51.178;4.448;2022-10-28T06:12:35;9.35;;;4.20;;
25948;SDS011;13961;51.178;4.448;2022-10-28T06:15:02;10.85;;;4.85;;
25948;SDS011;13961;51.178;4.448;2022-10-28T06:17:30;10.93;;;4.68;;
25948;SDS011;13961;51.178;4.448;2022-10-28T06:19:55;13.55;;;4.93;;
25948;SDS011;13961;51.178;4.448;2022-10-28T06:22:21;12.45;;;4.78;;
25948;SDS011;13961;51.178;4.448;2022-10-28T06:24:47;9.25;;;4.50;;
25948;SDS011;13961;51.178;4.448;2022-10-28T06:27:13;13.07;;;5.35;;
25948;SDS011;13961;51.178;4.448;2022-10-28T06:29:39;12.48;;;5.20;;
25948;SDS011;13961;51.178;4.448;2022-10-28T06:32:07;11.02;;;4.93;;
25948;SDS011;13961;51.178;4.448;2022-10-28T06:34:34;11.63;;;4.35;;
25948;SDS011;13961;51.178;4.448;2022-10-28T06:37:01;12.35;;;4.78;;
25948;SDS011;13961;51.178;4.448;2022-10-28T06:39:26;14.45;;;4.22;;
25948;SDS011;13961;51.178;4.448;2022-10-28T06:41:52;21.17;;;5.82;;
25948;SDS011;13961;51.178;4.448;2022-10-28T06:44:17;8.52;;;3.95;;
25948;SDS011;13961;51.178;4.448;2022-10-28T06:46:43;10.45;;;4.75;;
25948;SDS011;13961;51.178;4.448;2022-10-28T06:49:09;11.88;;;4.50;;
25948;SDS011;13961;51.178;4.448;2022-10-28T06:51:34;13.55;;;4.78;;
25948;SDS011;13961;51.178;4.448;2022-10-28T06:54:00;16.85;;;4.65;;
25948;SDS011;13961;51.178;4.448;2022-10-28T06:56:25;19.92;;;4.63;;
25948;SDS011;13961;51.178;4.448;2022-10-28T06:58:52;9.07;;;4.50;;
25948;SDS011;13961;51.178;4.448;2022-10-28T07:01:19;9.55;;;4.38;;
25948;SDS011;13961;51.178;4.448;2022-10-28T07:03:45;14.15;;;5.18;;
25948;SDS011;13961;51.178;4.448;2022-10-28T07:06:11;14.18;;;4.70;;
25948;SDS011;13961;51.178;4.448;2022-10-28T07:08:37;16.38;;;4.68;;
25948;SDS011;13961;51.178;4.448;2022-10-28T07:11:05;12.43;;;4.60;;
25948;SDS011;13961;51.178;4.448;2022-10-28T07:13:30;13.35;;;4.47;;
25948;SDS011;13961;51.178;4.448;2022-10-28T07:15:57;12.57;;;4.40;;
25948;SDS011;13961;51.178;4.448;2022-10-28T07:18:25;10.90;;;4.20;;
25948;SDS011;13961;51.178;4.448;2022-10-28T07:20:52;13.43;;;3.72;;
25948;SDS011;13961;51.178;4.448;2022-10-28T07:23:18;12.55;;;4.30;;
25948;SDS011;13961;51.178;4.448;2022-10-28T07:25:50;14.93;;;4.65;;
25948;SDS011;13961;51.178;4.448;2022-10-28T07:28:18;11.50;;;4.22;;
25948;SDS011;13961;51.178;4.448;2022-10-28T07:30:44;14.50;;;4.40;;
25948;SDS011;13961;51.178;4.448;2022-10-28T07:33:09;8.52;;;3.75;;
25948;SDS011;13961;51.178;4.448;2022-10-28T07:35:35;15.18;;;4.50;;
25948;SDS011;13961;51.178;4.448;2022-10-28T07:38:01;14.70;;;4.68;;
25948;SDS011;13961;51.178;4.448;2022-10-28T07:40:26;13.10;;;4.97;;
25948;SDS011;13961;51.178;4.448;2022-10-28T07:42:52;10.25;;;4.10;;
25948;SDS011;13961;51.178;4.448;2022-10-28T07:45:18;12.30;;;4.57;;
25948;SDS011;13961;51.178;4.448;2022-10-28T07:47:44;8.65;;;3.72;;
25948;SDS011;13961;51.178;4.448;2022-10-28T07:50:10;14.18;;;4.57;;
25948;SDS011;13961;51.178;4.448;2022-10-28T07:52:36;16.40;;;5.00;;
25948;SDS011;13961;51.178;4.448;2022-10-28T07:55:04;14.98;;;5.18;;
25948;SDS011;13961;51.178;4.448;2022-10-28T07:57:32;13.75;;;4.95;;
25948;SDS011;13961;51.178;4.448;2022-10-28T07:59:59;10.27;;;4.93;;
25948;SDS011;13961;51.178;4.448;2022-10-28T08:02:26;15.85;;;4.90;;
25948;SDS011;13961;51.178;4.448;2022-10-28T08:04:52;14.02;;;4.97;;
25948;SDS011;13961;51.178;4.448;2022-10-28T08:07:18;14.60;;;4.82;;
25948;SDS011;13961;51.178;4.448;2022-10-28T08:09:44;15.23;;;4.72;;
25948;SDS011;13961;51.178;4.448;2022-10-28T08:12:11;15.13;;;4.95;;
25948;SDS011;13961;51.178;4.448;2022-10-28T08:14:38;13.65;;;4.80;;
25948;SDS011;13961;51.178;4.448;2022-10-28T08:17:05;13.95;;;4.50;;
25948;SDS011;13961;51.178;4.448;2022-10-28T08:19:31;13.77;;;4.32;;
25948;SDS011;13961;51.178;4.448;2022-10-28T08:21:57;12.18;;;3.90;;
25948;SDS011;13961;51.178;4.448;2022-10-28T08:24:23;13.05;;;4.75;;
25948;SDS011;13961;51.178;4.448;2022-10-28T08:26:49;10.88;;;4.50;;
25948;SDS011;13961;51.178;4.448;2022-10-28T08:29:15;12.60;;;4.32;;
25948;SDS011;13961;51.178;4.448;2022-10-28T08:31:40;17.13;;;4.50;;
25948;SDS011;13961;51.178;4.448;2022-10-28T08:34:06;13.25;;;4.35;;
25948;SDS011;13961;51.178;4.448;2022-10-28T08:36:32;11.85;;;4.38;;
25948;SDS011;13961;51.178;4.448;2022-10-28T08:38:58;13.02;;;4.15;;
25948;SDS011;13961;51.178;4.448;2022-10-28T08:41:30;9.80;;;4.03;;
25948;SDS011;13961;51.178;4.448;2022-10-28T08:49:18;12.25;;;3.88;;
25948;SDS011;13961;51.178;4.448;2022-10-28T08:51:56;15.30;;;4.65;;
25948;SDS011;13961;51.178;4.448;2022-10-28T08:54:30;11.38;;;4.63;;
25948;SDS011;13961;51.178;4.448;2022-10-28T08:57:03;8.93;;;4.93;;
25948;SDS011;13961;51.178;4.448;2022-10-28T08:59:37;15.13;;;4.50;;
25948;SDS011;13961;51.178;4.448;2022-10-28T09:02:20;15.43;;;4.22;;
25948;SDS011;13961;51.178;4.448;2022-10-28T09:04:46;11.13;;;4.25;;
25948;SDS011;13961;51.178;4.448;2022-10-28T09:07:37;15.90;;;4.95;;
25948;SDS011;13961;51.178;4.448;2022-10-28T09:10:03;15.27;;;5.10;;
25948;SDS011;13961;51.178;4.448;2022-10-28T09:15:14;10.50;;;4.45;;
25948;SDS011;13961;51.178;4.448;2022-10-28T09:20:58;14.48;;;4.82;;
25948;SDS011;13961;51.178;4.448;2022-10-28T09:23:29;16.75;;;4.32;;
25948;SDS011;13961;51.178;4.448;2022-10-28T09:28:45;11.43;;;3.83;;
25948;SDS011;13961;51.178;4.448;2022-10-28T09:37:05;11.23;;;4.53;;
25948;SDS011;13961;51.178;4.448;2022-10-28T09:39:56;8.73;;;4.03;;
25948;SDS011;13961;51.178;4.448;2022-10-28T09:42:28;14.98;;;4.28;;
25948;SDS011;13961;51.178;4.448;2022-10-28T09:45:03;14.50;;;4.10;;
25948;SDS011;13961;51.178;4.448;2022-10-28T09:47:52;11.88;;;3.92;;
25948;SDS011;13961;51.178;4.448;2022-10-28T09:50:23;21.55;;;4.30;;
25948;SDS011;13961;51.178;4.448;2022-10-28T09:55:28;13.48;;;4.40;;
25948;SDS011;13961;51.178;4.448;2022-10-28T09:57:54;13.65;;;3.95;;
25948;SDS011;13961;51.178;4.448;2022-10-28T10:00:20;10.45;;;3.40;;
25948;SDS011;13961;51.178;4.448;2022-10-28T10:02:46;11.35;;;3.55;;
25948;SDS011;13961;51.178;4.448;2022-10-28T10:05:12;14.95;;;3.53;;
25948;SDS011;13961;51.178;4.448;2022-10-28T10:07:42;13.15;;;3.13;;
25948;SDS011;13961;51.178;4.448;2022-10-28T10:10:22;9.70;;;3.65;;
25948;SDS011;13961;51.178;4.448;2022-10-28T10:12:52;10.15;;;2.88;;
25948;SDS011;13961;51.178;4.448;2022-10-28T10:17:59;8.52;;;3.10;;
25948;SDS011;13961;51.178;4.448;2022-10-28T10:20:28;15.20;;;3.47;;
25948;SDS011;13961;51.178;4.448;2022-10-28T10:23:21;10.40;;;3.15;;
25948;SDS011;13961;51.178;4.448;2022-10-28T10:28:27;6.85;;;2.97;;
25948;SDS011;13961;51.178;4.448;2022-10-28T10:30:57;6.78;;;3.20;;
25948;SDS011;13961;51.178;4.448;2022-10-28T10:33:35;8.77;;;3.38;;
25948;SDS011;13961;51.178;4.448;2022-10-28T10:36:04;10.13;;;3.20;;
25948;SDS011;13961;51.178;4.448;2022-10-28T10:39:01;13.73;;;3.50;;
25948;SDS011;13961;51.178;4.448;2022-10-28T10:41:43;11.68;;;3.50;;
25948;SDS011;13961;51.178;4.448;2022-10-28T10:49:35;11.65;;;4.05;;
25948;SDS011;13961;51.178;4.448;2022-10-28T10:52:02;11.45;;;3.30;;
25948;SDS011;13961;51.178;4.448;2022-10-28T10:54:31;10.40;;;3.35;;
25948;SDS011;13961;51.178;4.448;2022-10-28T10:59:32;10.68;;;3.03;;
25948;SDS011;13961;51.178;4.448;2022-10-28T11:02:01;12.77;;;3.15;;
25948;SDS011;13961;51.178;4.448;2022-10-28T11:04:41;11.85;;;3.00;;
25948;SDS011;13961;51.178;4.448;2022-10-28T11:07:18;11.25;;;3.80;;
25948;SDS011;13961;51.178;4.448;2022-10-28T11:09:46;15.18;;;3.90;;
25948;SDS011;13961;51.178;4.448;2022-10-28T11:12:15;8.93;;;3.33;;
25948;SDS011;13961;51.178;4.448;2022-10-28T11:15:00;9.07;;;3.03;;
25948;SDS011;13961;51.178;4.448;2022-10-28T11:18:14;12.13;;;3.60;;
25948;SDS011;13961;51.178;4.448;2022-10-28T11:20:56;7.35;;;3.20;;
25948;SDS011;13961;51.178;4.448;2022-10-28T11:26:08;7.47;;;3.40;;
25948;SDS011;13961;51.178;4.448;2022-10-28T11:28:49;14.15;;;3.53;;
25948;SDS011;13961;51.178;4.448;2022-10-28T11:34:19;13.63;;;3.53;;
25948;SDS011;13961;51.178;4.448;2022-10-28T11:45:58;12.25;;;3.33;;
25948;SDS011;13961;51.178;4.448;2022-10-28T11:48:33;17.80;;;3.38;;
25948;SDS011;13961;51.178;4.448;2022-10-28T11:51:08;11.60;;;3.20;;
25948;SDS011;13961;51.178;4.448;2022-10-28T11:53:41;10.18;;;3.63;;
25948;SDS011;13961;51.178;4.448;2022-10-28T11:56:33;9.70;;;3.13;;
25948;SDS011;13961;51.178;4.448;2022-10-28T12:02:10;9.02;;;3.28;;
25948;SDS011;13961;51.178;4.448;2022-10-28T12:07:32;8.15;;;3.15;;
25948;SDS011;13961;51.178;4.448;2022-10-28T12:18:55;10.73;;;3.00;;
25948;SDS011;13961;51.178;4.448;2022-10-28T12:23:58;11.30;;;3.08;;
25948;SDS011;13961;51.178;4.448;2022-10-28T12:29:07;16.00;;;3.55;;
25948;SDS011;13961;51.178;4.448;2022-10-28T12:31:47;8.63;;;3.67;;
25948;SDS011;13961;51.178;4.448;2022-10-28T12:34:19;13.95;;;3.05;;
25948;SDS011;13961;51.178;4.448;2022-10-28T12:36:57;12.18;;;3.17;;
25948;SDS011;13961;51.178;4.448;2022-10-28T12:39:34;6.03;;;2.90;;
25948;SDS011;13961;51.178;4.448;2022-10-28T12:42:32;9.75;;;2.97;;
25948;SDS011;13961;51.178;4.448;2022-10-28T12:45:03;6.13;;;2.60;;
25948;SDS011;13961;51.178;4.448;2022-10-28T12:47:38;6.82;;;3.10;;
25948;SDS011;13961;51.178;4.448;2022-10-28T12:56:00;9.43;;;2.90;;
25948;SDS011;13961;51.178;4.448;2022-10-28T13:01:12;9.85;;;3.05;;
25948;SDS011;13961;51.178;4.448;2022-10-28T13:03:40;11.52;;;2.88;;
25948;SDS011;13961;51.178;4.448;2022-10-28T13:06:23;9.35;;;2.80;;
25948;SDS011;13961;51.178;4.448;2022-10-28T13:15:23;8.75;;;3.28;;
25948;SDS011;13961;51.178;4.448;2022-10-28T13:24:13;10.32;;;3.13;;
25948;SDS011;13961;51.178;4.448;2022-10-28T13:26:53;9.02;;;3.17;;
25948;SDS011;13961;51.178;4.448;2022-10-28T13:29:24;8.40;;;2.90;;
25948;SDS011;13961;51.178;4.448;2022-10-28T13:31:54;10.48;;;3.20;;
25948;SDS011;13961;51.178;4.448;2022-10-28T13:34:25;11.82;;;3.13;;
25948;SDS011;13961;51.178;4.448;2022-10-28T13:36:58;7.55;;;2.88;;
25948;SDS011;13961;51.178;4.448;2022-10-28T13:44:52;9.38;;;2.63;;
25948;SDS011;13961;51.178;4.448;2022-10-28T13:55:00;8.75;;;2.80;;
25948;SDS011;13961;51.178;4.448;2022-10-28T13:57:51;10.77;;;3.13;;
25948;SDS011;13961;51.178;4.448;2022-10-28T14:02:55;10.80;;;3.05;;
25948;SDS011;13961;51.178;4.448;2022-10-28T14:08:01;9.02;;;3.25;;
25948;SDS011;13961;51.178;4.448;2022-10-28T14:10:28;8.43;;;2.90;;
25948;SDS011;13961;51.178;4.448;2022-10-28T14:12:56;6.95;;;2.85;;
25948;SDS011;13961;51.178;4.448;2022-10-28T14:15:36;8.80;;;3.53;;
25948;SDS011;13961;51.178;4.448;2022-10-28T14:33:38;10.60;;;2.97;;
25948;SDS011;13961;51.178;4.448;2022-10-28T14:49:23;10.30;;;3.53;;
25948;SDS011;13961;51.178;4.448;2022-10-28T14:51:50;13.27;;;3.85;;
25948;SDS011;13961;51.178;4.448;2022-10-28T14:54:21;11.07;;;3.60;;
25948;SDS011;13961;51.178;4.448;2022-10-28T14:57:01;11.68;;;3.17;;
25948;SDS011;13961;51.178;4.448;2022-10-28T15:07:41;13.90;;;3.60;;
25948;SDS011;13961;51.178;4.448;2022-10-28T15:10:18;7.05;;;3.42;;
25948;SDS011;13961;51.178;4.448;2022-10-28T15:12:47;11.52;;;3.40;;
25948;SDS011;13961;51.178;4.448;2022-10-28T15:15:15;9.13;;;3.05;;
25948;SDS011;13961;51.178;4.448;2022-10-28T15:17:48;6.95;;;3.00;;
25948;SDS011;13961;51.178;4.448;2022-10-28T15:22:53;8.85;;;3.10;;
25948;SDS011;13961;51.178;4.448;2022-10-28T15:25:37;7.65;;;3.20;;
25948;SDS011;13961;51.178;4.448;2022-10-28T15:28:04;8.38;;;3.58;;
25948;SDS011;13961;51.178;4.448;2022-10-28T15:30:30;8.50;;;3.10;;
25948;SDS011;13961;51.178;4.448;2022-10-28T15:33:19;10.10;;;3.25;;
25948;SDS011;13961;51.178;4.448;2022-10-28T15:36:07;11.48;;;3.30;;
25948;SDS011;13961;51.178;4.448;2022-10-28T15:38:43;17.48;;;4.03;;
25948;SDS011;13961;51.178;4.448;2022-10-28T15:44:01;11.52;;;3.45;;
25948;SDS011;13961;51.178;4.448;2022-10-28T15:46:27;10.18;;;3.65;;
25948;SDS011;13961;51.178;4.448;2022-10-28T15:48:58;9.38;;;3.63;;
25948;SDS011;13961;51.178;4.448;2022-10-28T15:51:24;8.82;;;3.58;;
25948;SDS011;13961;51.178;4.448;2022-10-28T15:53:53;9.85;;;3.53;;
25948;SDS011;13961;51.178;4.448;2022-10-28T15:56:33;10.93;;;3.22;;
25948;SDS011;13961;51.178;4.448;2022-10-28T15:59:23;10.77;;;3.40;;
25948;SDS011;13961;51.178;4.448;2022-10-28T16:01:51;10.93;;;3.80;;
25948;SDS011;13961;51.178;4.448;2022-10-28T16:06:51;9.75;;;3.67;;
25948;SDS011;13961;51.178;4.448;2022-10-28T16:09:26;10.05;;;3.63;;
25948;SDS011;13961;51.178;4.448;2022-10-28T16:11:59;10.98;;;3.50;;
25948;SDS011;13961;51.178;4.448;2022-10-28T16:19:35;10.88;;;3.67;;
25948;SDS011;13961;51.178;4.448;2022-10-28T16:22:03;14.77;;;4.15;;
25948;SDS011;13961;51.178;4.448;2022-10-28T16:24:33;13.73;;;4.47;;
25948;SDS011;13961;51.178;4.448;2022-10-28T16:29:57;8.85;;;4.10;;
25948;SDS011;13961;51.178;4.448;2022-10-28T16:32:26;10.43;;;3.72;;
25948;SDS011;13961;51.178;4.448;2022-10-28T16:34:57;11.93;;;4.05;;
25948;SDS011;13961;51.178;4.448;2022-10-28T16:37:30;8.70;;;3.70;;
25948;SDS011;13961;51.178;4.448;2022-10-28T16:39:58;11.65;;;3.90;;
25948;SDS011;13961;51.178;4.448;2022-10-28T16:42:24;11.48;;;3.95;;
25948;SDS011;13961;51.178;4.448;2022-10-28T16:44:52;13.90;;;4.00;;
25948;SDS011;13961;51.178;4.448;2022-10-28T16:47:19;13.93;;;4.25;;
25948;SDS011;13961;51.178;4.448;2022-10-28T16:49:46;12.68;;;4.47;;
25948;SDS011;13961;51.178;4.448;2022-10-28T16:52:15;12.07;;;4.10;;
25948;SDS011;13961;51.178;4.448;2022-10-28T16:54:45;9.27;;;4.60;;
25948;SDS011;13961;51.178;4.448;2022-10-28T16:57:11;10.73;;;4.43;;
25948;SDS011;13961;51.178;4.448;2022-10-28T16:59:40;13.88;;;4.78;;
25948;SDS011;13961;51.178;4.448;2022-10-28T17:04:57;16.33;;;4.43;;
25948;SDS011;13961;51.178;4.448;2022-10-28T17:07:24;9.18;;;4.13;;
25948;SDS011;13961;51.178;4.448;2022-10-28T17:09:51;13.60;;;4.68;;
25948;SDS011;13961;51.178;4.448;2022-10-28T17:12:18;10.88;;;4.80;;
25948;SDS011;13961;51.178;4.448;2022-10-28T17:14:45;17.35;;;6.05;;
25948;SDS011;13961;51.178;4.448;2022-10-28T17:17:12;12.68;;;5.45;;
25948;SDS011;13961;51.178;4.448;2022-10-28T17:19:39;15.32;;;5.85;;
25948;SDS011;13961;51.178;4.448;2022-10-28T17:22:05;22.90;;;7.50;;
25948;SDS011;13961;51.178;4.448;2022-10-28T17:24:32;20.55;;;7.55;;
25948;SDS011;13961;51.178;4.448;2022-10-28T17:26:59;20.65;;;7.63;;
25948;SDS011;13961;51.178;4.448;2022-10-28T17:29:25;14.93;;;6.22;;
25948;SDS011;13961;51.178;4.448;2022-10-28T17:31:51;15.73;;;6.15;;
25948;SDS011;13961;51.178;4.448;2022-10-28T17:34:17;12.10;;;6.25;;
25948;SDS011;13961;51.178;4.448;2022-10-28T17:36:43;20.60;;;6.10;;
25948;SDS011;13961;51.178;4.448;2022-10-28T17:39:08;14.02;;;5.55;;
25948;SDS011;13961;51.178;4.448;2022-10-28T17:41:34;12.55;;;5.10;;
25948;SDS011;13961;51.178;4.448;2022-10-28T17:44:01;11.70;;;5.40;;
25948;SDS011;13961;51.178;4.448;2022-10-28T17:46:26;12.57;;;5.90;;
25948;SDS011;13961;51.178;4.448;2022-10-28T17:48:52;13.88;;;5.63;;
25948;SDS011;13961;51.178;4.448;2022-10-28T17:51:18;10.38;;;5.05;;
25948;SDS011;13961;51.178;4.448;2022-10-28T17:53:45;14.73;;;4.75;;
25948;SDS011;13961;51.178;4.448;2022-10-28T17:56:11;9.27;;;5.22;;
25948;SDS011;13961;51.178;4.448;2022-10-28T17:58:36;12.60;;;4.30;;
25948;SDS011;13961;51.178;4.448;2022-10-28T18:01:04;11.73;;;4.82;;
25948;SDS011;13961;51.178;4.448;2022-10-28T18:03:31;11.65;;;4.55;;
25948;SDS011;13961;51.178;4.448;2022-10-28T18:06:03;14.00;;;5.40;;
25948;SDS011;13961;51.178;4.448;2022-10-28T18:08:34;11.10;;;4.78;;
25948;SDS011;13961;51.178;4.448;2022-10-28T18:11:02;10.10;;;5.07;;
25948;SDS011;13961;51.178;4.448;2022-10-28T18:13:30;8.60;;;4.40;;
25948;SDS011;13961;51.178;4.448;2022-10-28T18:16:06;11.07;;;4.70;;
25948;SDS011;13961;51.178;4.448;2022-10-28T18:18:40;13.18;;;5.60;;
25948;SDS011;13961;51.178;4.448;2022-10-28T18:21:06;13.55;;;4.35;;
25948;SDS011;13961;51.178;4.448;2022-10-28T18:23:33;12.32;;;5.05;;
25948;SDS011;13961;51.178;4.448;2022-10-28T18:26:03;12.68;;;4.75;;